Time;durP1;ratioP1;P1;durP2;ratioP2;P2;SDS_P1;SDS_P2;PMS_P1;PMS_P2;Temp;Humidity;BMP_temperature;BMP_pressure;BME280_temperature;BME280_humidity;BME280_pressure;Samples;Min_cycle;Max_cycle;Signal;HPM_P1;HPM_P2
2022/03/21 00:00:44;;;;;;;8.90;6.15;;;;;;;-1.28;50.11;61865.91;5029102;28;20404;-75
2022/03/21 00:03:14;;;;;;;8.27;5.57;;;;;;;-1.28;51.37;61875.91;5015915;28;20246;-75
2022/03/21 00:05:40;;;;;;;9.32;6.38;;;;;;;-1.33;51.53;61868.28;5011032;28;20214;-74
2022/03/21 00:08:11;;;;;;;10.73;6.63;;;;;;;-1.40;51.41;61861.63;5012148;28;20455;-75
2022/03/21 00:10:38;;;;;;;11.25;6.30;;;;;;;-1.40;50.81;61858.63;5034767;28;20205;-75
2022/03/21 00:13:06;;;;;;;10.80;6.97;;;;;;;-1.32;49.76;61867.31;5031767;28;20465;-75
2022/03/21 00:15:34;;;;;;;12.32;7.18;;;;;;;-1.24;48.61;61875.00;5027913;28;20218;-74
2022/03/21 00:18:02;;;;;;;7.68;5.72;;;;;;;-1.22;49.24;61882.03;5026525;28;20230;-74
2022/03/21 00:20:30;;;;;;;10.50;6.28;;;;;;;-1.32;49.04;61874.28;5038058;28;20224;-75
2022/03/21 00:22:57;;;;;;;8.65;6.25;;;;;;;-1.26;49.80;61873.44;5034955;28;20245;-75
2022/03/21 00:25:26;;;;;;;11.32;7.05;;;;;;;-1.26;49.73;61877.94;5028997;28;20392;-75
2022/03/21 00:27:52;;;;;;;8.48;5.68;;;;;;;-1.26;49.93;61870.47;5027031;28;20254;-75
2022/03/21 00:30:19;;;;;;;13.05;6.68;;;;;;;-1.33;50.15;61868.78;5026515;28;21418;-75
2022/03/21 00:32:46;;;;;;;13.52;6.30;;;;;;;-1.32;50.46;61867.31;5026303;28;20543;-74
2022/03/21 00:35:15;;;;;;;14.70;6.13;;;;;;;-1.34;49.99;61869.75;5026887;28;20222;-74
2022/03/21 00:37:43;;;;;;;11.02;6.90;;;;;;;-1.31;50.55;61872.81;5026113;28;20223;-75
2022/03/21 00:40:12;;;;;;;11.32;6.72;;;;;;;-1.32;49.95;61862.34;5026439;28;20457;-75
2022/03/21 00:42:41;;;;;;;9.90;6.47;;;;;;;-1.33;50.77;61870.78;5026539;28;20407;-75
2022/03/21 00:45:10;;;;;;;14.07;6.95;;;;;;;-1.45;51.86;61854.00;5027549;28;20218;-75
2022/03/21 00:47:38;;;;;;;6.88;5.80;;;;;;;-1.45;51.55;61853.50;5026562;28;20215;-73
2022/03/21 00:50:06;;;;;;;8.35;6.22;;;;;;;-1.42;50.92;61859.06;5025039;28;20238;-75
2022/03/21 00:52:38;;;;;;;8.00;6.18;;;;;;;-1.46;51.25;61849.97;5025642;28;20219;-75
2022/03/21 00:55:06;;;;;;;8.40;5.97;;;;;;;-1.44;50.71;61857.03;5024935;28;20199;-75
2022/03/21 00:57:34;;;;;;;10.55;5.75;;;;;;;-1.46;50.71;61853.00;5025839;28;20337;-75
2022/03/21 01:00:03;;;;;;;13.52;6.95;;;;;;;-1.47;51.40;61853.97;5026040;28;20202;-75
2022/03/21 01:02:29;;;;;;;9.88;6.65;;;;;;;-1.42;50.26;61857.09;5019823;28;20254;-74
2022/03/21 01:04:56;;;;;;;8.70;5.90;;;;;;;-1.38;50.31;61855.69;5024753;28;20214;-74
2022/03/21 01:07:23;;;;;;;9.32;6.60;;;;;;;-1.42;50.54;61851.59;5026211;28;20424;-75
2022/03/21 01:09:50;;;;;;;9.85;6.68;;;;;;;-1.41;50.22;61860.59;5024347;28;20322;-74
2022/03/21 01:12:17;;;;;;;8.48;5.90;;;;;;;-1.40;50.15;61858.63;5025274;28;20223;-75
2022/03/21 01:14:43;;;;;;;12.40;5.95;;;;;;;-1.43;51.06;61853.56;5026569;28;20205;-76
2022/03/21 01:17:12;;;;;;;7.55;5.57;;;;;;;-1.40;50.33;61866.63;5025659;28;20294;-75
2022/03/21 01:19:38;;;;;;;8.30;5.97;;;;;;;-1.35;50.42;61869.22;5024655;28;20199;-75
2022/03/21 01:22:06;;;;;;;9.55;6.85;;;;;;;-1.32;50.27;61872.31;5032111;28;20222;-75
2022/03/21 01:24:35;;;;;;;6.22;5.63;;;;;;;-1.24;50.80;61873.00;5025407;28;20222;-74
2022/03/21 01:27:02;;;;;;;7.22;5.25;;;;;;;-1.19;49.75;61877.59;5025278;28;20527;-74
2022/03/21 01:29:29;;;;;;;9.45;6.53;;;;;;;-1.14;50.08;61882.22;5024524;28;20242;-74
2022/03/21 01:31:56;;;;;;;12.68;6.60;;;;;;;-1.14;50.54;61889.72;5032402;28;20241;-73
2022/03/21 01:34:25;;;;;;;9.77;7.10;;;;;;;-1.02;49.82;61897.53;5025100;28;20254;-74
2022/03/21 01:36:52;;;;;;;13.63;7.50;;;;;;;-1.06;50.21;61892.91;5025924;28;20289;-75
2022/03/21 01:39:19;;;;;;;9.40;6.85;;;;;;;-0.96;49.45;61903.13;5026718;28;20214;-74
2022/03/21 01:41:46;;;;;;;11.40;6.40;;;;;;;-0.95;48.66;61902.19;5045080;28;20534;-75
2022/03/21 01:44:13;;;;;;;8.20;5.95;;;;;;;-0.95;48.77;61914.69;5044740;28;20241;-75
2022/03/21 01:46:41;;;;;;;10.02;6.88;;;;;;;-0.92;48.11;61904.75;5032379;28;20206;-74
2022/03/21 01:49:09;;;;;;;13.55;6.32;;;;;;;-0.90;49.07;61907.31;5032445;28;20242;-75
2022/03/21 01:51:39;;;;;;;11.98;7.32;;;;;;;-0.87;49.23;61914.84;5024144;28;20203;-74
2022/03/21 01:56:51;;;;;;;11.50;6.80;;;;;;;-0.89;49.82;61908.31;5023504;28;20557;-73
2022/03/21 01:59:20;;;;;;;11.13;6.45;;;;;;;-0.91;49.99;61908.25;5032754;28;20202;-74
2022/03/21 02:01:49;;;;;;;13.85;7.03;;;;;;;-0.94;50.48;61905.19;5023855;28;20218;-76
2022/03/21 02:04:16;;;;;;;12.50;7.00;;;;;;;-0.97;50.37;61902.63;5004831;28;20215;-75
2022/03/21 02:06:45;;;;;;;11.80;7.13;;;;;;;-0.91;49.65;61905.75;5026815;28;20525;-75
2022/03/21 02:09:13;;;;;;;9.52;6.07;;;;;;;-0.93;49.84;61906.22;5026629;28;20238;-75
2022/03/21 02:11:40;;;;;;;8.85;6.43;;;;;;;-0.94;50.49;61905.19;5024503;28;20201;-74
2022/03/21 02:14:08;;;;;;;10.00;6.82;;;;;;;-0.97;50.59;61895.16;5023817;28;20246;-75
2022/03/21 02:16:37;;;;;;;12.18;6.93;;;;;;;-0.92;50.11;61902.75;5031003;28;20241;-74
2022/03/21 02:19:09;;;;;;;10.52;6.47;;;;;;;-0.83;49.87;61914.47;5025312;28;20233;-75
2022/03/21 02:21:52;;;;;;;7.53;5.90;;;;;;;-0.84;49.72;61918.44;5025234;28;20207;-75
2022/03/21 02:24:27;;;;;;;8.75;6.43;;;;;;;-0.88;49.79;61916.34;5024226;28;20272;-75
2022/03/21 02:26:59;;;;;;;9.30;6.22;;;;;;;-0.81;49.31;61916.50;5025676;28;20237;-75
2022/03/21 02:29:27;;;;;;;12.82;6.82;;;;;;;-0.91;50.01;61906.28;5024453;28;20273;-74
2022/03/21 02:31:55;;;;;;;11.18;6.93;;;;;;;-0.94;50.56;61903.22;5023766;28;20325;-74
2022/03/21 02:34:25;;;;;;;10.88;7.57;;;;;;;-0.97;51.50;61900.16;5033473;28;20252;-74
2022/03/21 02:36:53;;;;;;;9.65;6.93;;;;;;;-0.97;50.67;61897.13;5043849;28;20218;-74
2022/03/21 02:39:21;;;;;;;12.30;6.82;;;;;;;-1.05;51.95;61893.94;5044044;28;20417;-75
2022/03/21 02:41:49;;;;;;;8.23;6.38;;;;;;;-1.03;51.66;61895.97;5022843;28;20226;-74
2022/03/21 02:44:17;;;;;;;9.65;7.10;;;;;;;-1.07;51.25;61889.41;5039240;28;20503;-75
2022/03/21 02:46:43;;;;;;;10.20;6.55;;;;;;;-1.10;49.69;61889.31;5029178;28;20484;-75
2022/03/21 02:49:10;;;;;;;9.98;6.85;;;;;;;-1.06;49.71;61903.41;5024626;28;20276;-75
2022/03/21 02:51:40;;;;;;;7.80;5.95;;;;;;;-1.12;50.65;61884.28;5034459;28;20198;-74
2022/03/21 02:54:07;;;;;;;8.80;5.90;;;;;;;-1.12;50.64;61886.78;5047449;28;20187;-75
2022/03/21 02:56:34;;;;;;;9.95;6.47;;;;;;;-1.16;50.56;61881.19;5024574;28;20198;-74
2022/03/21 02:59:01;;;;;;;8.10;6.30;;;;;;;-1.25;53.03;61871.47;5023050;28;20226;-75
2022/03/21 03:01:29;;;;;;;10.57;6.72;;;;;;;-1.27;52.74;61869.44;5030920;28;20198;-75
2022/03/21 03:03:56;;;;;;;9.32;6.63;;;;;;;-1.28;52.08;61876.41;5025100;28;20226;-75
2022/03/21 03:06:23;;;;;;;10.57;7.57;;;;;;;-1.33;51.70;61863.78;5023882;28;20198;-75
2022/03/21 03:08:50;;;;;;;10.77;7.00;;;;;;;-1.37;51.74;61854.19;5022157;28;20242;-74
2022/03/21 03:11:16;;;;;;;11.35;8.55;;;;;;;-1.32;51.63;61874.81;5036829;28;20202;-75
2022/03/21 03:13:43;;;;;;;14.57;6.65;;;;;;;-1.30;51.90;61869.38;5043413;28;20271;-75
2022/03/21 03:16:10;;;;;;;15.80;7.10;;;;;;;-1.28;52.17;61873.91;5024901;28;20514;-75
2022/03/21 03:18:38;;;;;;;12.25;7.88;;;;;;;-1.30;51.99;61869.38;5028677;28;20240;-76
2022/03/21 03:21:05;;;;;;;13.95;7.28;;;;;;;-1.36;52.61;61868.22;5031010;28;20318;-76
2022/03/21 03:23:33;;;;;;;11.68;8.07;;;;;;;-1.38;51.74;61866.16;5033050;28;20542;-75
2022/03/21 03:26:02;;;;;;;13.82;8.02;;;;;;;-1.31;51.79;61867.81;5032424;28;20221;-75
2022/03/21 03:28:31;;;;;;;12.10;7.78;;;;;;;-1.28;50.51;61878.91;5035477;28;20221;-76
2022/03/21 03:30:59;;;;;;;11.00;6.07;;;;;;;-1.30;50.85;61873.84;5048297;28;20229;-76
2022/03/21 03:33:26;;;;;;;10.00;7.57;;;;;;;-1.28;50.57;61870.91;5050107;28;20538;-74
2022/03/21 03:35:54;;;;;;;12.55;7.90;;;;;;;-1.14;49.56;61884.72;5026630;28;20436;-75
2022/03/21 03:38:21;;;;;;;14.95;7.85;;;;;;;-1.18;50.03;61881.13;5040962;28;20222;-75
2022/03/21 03:40:48;;;;;;;15.25;8.07;;;;;;;-1.22;49.66;61875.06;5034756;28;20264;-75
2022/03/21 03:43:16;;;;;;;12.43;7.68;;;;;;;-1.13;49.66;61888.75;5029823;28;20218;-76
2022/03/21 03:45:43;;;;;;;13.82;7.97;;;;;;;-1.17;50.24;61877.69;5028329;28;20230;-76
2022/03/21 03:48:10;;;;;;;11.02;8.20;;;;;;;-1.19;49.57;61877.59;5022895;28;20288;-75
2022/03/21 03:50:37;;;;;;;13.20;8.05;;;;;;;-1.17;49.45;61882.16;5029905;28;20253;-75
2022/03/21 03:53:06;;;;;;;16.25;8.43;;;;;;;-1.20;49.70;61882.09;5028975;28;20225;-75
2022/03/21 03:55:32;;;;;;;10.13;7.45;;;;;;;-1.23;49.72;61873.53;5030260;28;20198;-76
2022/03/21 03:58:00;;;;;;;15.75;8.65;;;;;;;-1.24;49.38;61879.97;5049867;28;20218;-74
2022/03/21 04:00:26;;;;;;;13.68;8.70;;;;;;;-1.16;49.63;61890.69;5043121;28;20241;-74
2022/03/21 04:05:38;;;;;;;15.27;9.63;;;;;;;-1.17;50.55;61880.19;5044327;28;20245;-75
2022/03/21 04:08:06;;;;;;;17.80;8.63;;;;;;;-1.23;49.47;61873.53;5049087;28;20424;-75
2022/03/21 04:10:33;;;;;;;12.75;7.95;;;;;;;-1.16;48.88;61883.69;5030889;28;20554;-74
2022/03/21 04:13:00;;;;;;;15.18;8.70;;;;;;;-1.11;48.59;61890.28;5029684;28;20218;-75
2022/03/21 04:15:27;;;;;;;16.08;7.88;;;;;;;-1.17;48.05;61877.69;5051753;28;20301;-75
2022/03/21 04:17:59;;;;;;;16.25;8.50;;;;;;;-1.10;48.86;61893.81;5054197;28;20391;-75
2022/03/21 04:20:25;;;;;;;16.15;8.75;;;;;;;-1.14;49.52;61887.22;5032978;28;20237;-74
2022/03/21 04:22:53;;;;;;;12.57;8.55;;;;;;;-1.17;49.84;61886.66;5037832;28;20222;-75
2022/03/21 04:25:21;;;;;;;11.80;7.97;;;;;;;-1.24;49.23;61875.50;5049410;28;20244;-74
2022/03/21 04:27:47;;;;;;;16.35;9.13;;;;;;;-1.17;48.76;61885.16;5028435;28;20539;-75
2022/03/21 04:30:15;;;;;;;14.35;9.75;;;;;;;-1.27;49.05;61869.44;5024105;28;20562;-75
2022/03/21 04:32:43;;;;;;;13.73;8.07;;;;;;;-1.29;49.19;61862.38;5034997;28;20222;-75
2022/03/21 04:35:10;;;;;;;12.43;7.93;;;;;;;-1.29;48.86;61874.88;5026551;28;20198;-76
2022/03/21 04:37:37;;;;;;;12.02;7.88;;;;;;;-1.25;48.27;61878.97;5026661;28;20406;-74
2022/03/21 04:40:05;;;;;;;14.80;8.88;;;;;;;-1.34;49.02;61870.28;5025126;28;20539;-75
2022/03/21 04:42:33;;;;;;;13.10;6.97;;;;;;;-1.30;48.95;61873.84;5040686;28;20436;-75
2022/03/21 04:45:00;;;;;;;11.20;7.65;;;;;;;-1.33;48.78;61873.78;5026102;28;20241;-75
2022/03/21 04:47:27;;;;;;;11.38;6.95;;;;;;;-1.28;49.13;61873.91;5025120;28;20249;-74
2022/03/21 04:49:54;;;;;;;10.10;6.85;;;;;;;-1.25;48.72;61872.00;5033080;28;20237;-75
2022/03/21 04:52:20;;;;;;;11.35;6.60;;;;;;;-1.11;47.85;61887.78;5046163;28;20413;-75
2022/03/21 04:54:48;;;;;;;11.07;7.13;;;;;;;-1.10;47.06;61888.81;5045577;28;20205;-75
2022/03/21 04:57:15;;;;;;;10.25;7.00;;;;;;;-0.94;46.89;61903.22;5028318;28;20470;-74
2022/03/21 04:59:43;;;;;;;15.38;7.93;;;;;;;-0.80;47.22;61917.03;5037741;28;20213;-75
2022/03/21 05:02:10;;;;;;;9.50;7.00;;;;;;;-0.77;47.42;61925.09;5027001;28;20261;-75
2022/03/21 05:04:37;;;;;;;11.07;7.07;;;;;;;-0.76;47.89;61929.13;5007431;28;20255;-74
2022/03/21 05:07:06;;;;;;;9.50;6.65;;;;;;;-0.62;47.47;61935.47;5026327;28;20310;-76
2022/03/21 05:09:32;;;;;;;11.05;7.05;;;;;;;-0.58;46.70;61937.06;5030144;28;20241;-75
2022/03/21 05:11:59;;;;;;;14.73;8.95;;;;;;;-0.55;46.96;61943.13;5026698;28;20443;-74
2022/03/21 05:14:26;;;;;;;12.75;8.55;;;;;;;-0.52;47.37;61951.19;5025101;28;20206;-75
2022/03/21 05:16:54;;;;;;;11.73;7.88;;;;;;;-0.42;46.50;61955.94;5024414;28;20234;-74
2022/03/21 05:19:21;;;;;;;10.27;6.20;;;;;;;-0.34;45.66;61967.16;5023852;28;20195;-74
2022/03/21 05:21:48;;;;;;;8.23;6.38;;;;;;;-0.19;46.04;61977.00;5025424;28;20265;-74
2022/03/21 05:32:40;;;;;;;8.93;6.57;;;;;;;0.22;45.35;62021.00;5001009;28;20265;-75
2022/03/21 05:37:51;;;;;;;11.48;7.43;;;;;;;0.46;44.81;62050.63;5024121;28;20261;-74
2022/03/21 05:40:34;;;;;;;11.05;6.97;;;;;;;0.50;44.78;62055.22;5021853;28;20207;-74
2022/03/21 05:43:01;;;;;;;8.18;6.47;;;;;;;0.60;44.55;62064.97;5009850;28;20226;-74
2022/03/21 05:45:28;;;;;;;8.63;6.28;;;;;;;0.66;44.14;62068.59;5024795;28;20446;-74
2022/03/21 05:50:41;;;;;;;10.10;7.03;;;;;;;0.89;44.30;62087.72;5028809;28;20219;-75
2022/03/21 05:53:09;;;;;;;14.55;7.07;;;;;;;1.01;43.68;62100.03;5041595;28;20268;-74
2022/03/21 05:55:36;;;;;;;8.73;6.18;;;;;;;1.08;42.59;62112.22;5044573;28;20205;-75
2022/03/21 05:58:03;;;;;;;9.32;6.63;;;;;;;1.22;42.92;62126.06;5028099;28;20499;-75
2022/03/21 06:00:30;;;;;;;7.75;5.78;;;;;;;1.32;42.62;62133.81;5025434;28;20199;-76
2022/03/21 06:02:59;;;;;;;8.45;6.28;;;;;;;1.44;42.52;62148.13;5018800;28;20457;-74
2022/03/21 06:05:25;;;;;;;10.10;7.18;;;;;;;1.54;42.57;62161.41;5005313;28;20238;-75
2022/03/21 06:07:55;;;;;;;9.02;6.13;;;;;;;1.53;42.96;62155.38;5018259;28;20226;-75
2022/03/21 06:10:23;;;;;;;12.43;8.18;;;;;;;1.62;42.99;62164.59;5031354;28;20230;-74
2022/03/21 06:12:50;;;;;;;13.32;6.70;;;;;;;1.72;42.62;62179.88;5039608;28;20226;-75
2022/03/21 06:15:17;;;;;;;10.45;6.60;;;;;;;1.75;41.75;62182.97;5044245;28;20193;-74
2022/03/21 06:17:45;;;;;;;15.02;6.88;;;;;;;1.78;41.95;62185.50;5024101;28;20233;-75
2022/03/21 06:20:15;;;;;;;9.55;6.85;;;;;;;1.71;42.08;62173.31;5022839;28;20206;-74
2022/03/21 06:22:42;;;;;;;9.05;6.55;;;;;;;1.58;41.83;62159.97;5023082;28;20234;-74
2022/03/21 06:25:11;;;;;;;7.82;6.13;;;;;;;1.57;42.53;62156.94;5022457;28;20205;-73
2022/03/21 06:27:39;;;;;;;12.85;5.90;;;;;;;1.44;42.64;62143.09;5022893;28;20214;-75
2022/03/21 06:30:07;;;;;;;12.57;6.97;;;;;;;1.47;42.58;62148.69;5030405;28;20241;-75
2022/03/21 06:32:34;;;;;;;9.18;6.47;;;;;;;1.58;42.29;62160.50;5047439;28;20232;-75
2022/03/21 06:35:01;;;;;;;8.50;6.97;;;;;;;1.80;42.96;62183.06;5044366;28;20194;-75
2022/03/21 06:37:29;;;;;;;9.48;5.82;;;;;;;1.98;42.67;62208.56;5023117;28;20223;-75
2022/03/21 06:39:56;;;;;;;10.10;5.90;;;;;;;1.92;42.69;62192.34;5042874;28;20276;-73
2022/03/21 06:42:23;;;;;;;13.15;7.03;;;;;;;1.92;41.75;62192.34;5044222;28;20271;-74
2022/03/21 06:44:52;;;;;;;9.00;6.28;;;;;;;1.78;42.63;62183.53;5031385;28;20261;-74
2022/03/21 06:47:20;;;;;;;8.38;6.68;;;;;;;2.00;42.74;62203.09;5023726;28;20293;-76
2022/03/21 06:49:48;;;;;;;12.00;7.45;;;;;;;1.80;42.62;62183.06;5023504;28;20221;-73
2022/03/21 06:52:16;;;;;;;11.57;6.55;;;;;;;2.01;43.51;62206.63;5023414;28;20265;-73
2022/03/21 06:54:45;;;;;;;10.65;6.15;;;;;;;2.16;41.74;62217.00;5021464;28;20273;-73
2022/03/21 06:57:12;;;;;;;8.32;5.97;;;;;;;2.16;41.89;62222.03;5016450;28;20219;-74
2022/03/21 06:59:39;;;;;;;11.95;6.43;;;;;;;2.31;42.47;62234.94;5017515;28;20207;-73
2022/03/21 07:02:06;;;;;;;8.50;6.60;;;;;;;2.02;42.02;62205.66;5023414;28;20222;-73
2022/03/21 07:04:33;;;;;;;7.68;6.57;;;;;;;2.16;41.58;62219.50;5023505;28;20258;-73
2022/03/21 07:07:00;;;;;;;11.68;7.32;;;;;;;2.25;42.12;62229.28;5034491;28;20222;-74
2022/03/21 07:09:26;;;;;;;8.57;5.72;;;;;;;2.60;41.55;62269.75;5030091;28;20541;-73
2022/03/21 07:11:55;;;;;;;10.30;6.13;;;;;;;2.95;41.05;62303.19;5023900;28;20238;-76
2022/03/21 07:14:21;;;;;;;12.98;7.13;;;;;;;2.88;40.86;62295.47;5023890;28;20225;-76
2022/03/21 07:16:48;;;;;;;8.90;5.70;;;;;;;2.81;40.80;62283.25;5030853;28;20226;-75
2022/03/21 07:19:15;;;;;;;12.18;7.43;;;;;;;2.82;41.27;62291.81;5022446;28;20241;-75
2022/03/21 07:21:42;;;;;;;9.75;6.78;;;;;;;3.01;40.59;62309.34;5026866;28;20229;-77
2022/03/21 07:24:09;;;;;;;12.15;6.72;;;;;;;3.15;40.56;62325.75;5028936;28;20206;-78
2022/03/21 07:26:36;;;;;;;8.32;6.40;;;;;;;3.02;40.55;62309.88;5028461;28;20221;-78
2022/03/21 07:29:06;;;;;;;14.73;7.57;;;;;;;2.97;40.50;62299.72;5025510;28;20199;-77
2022/03/21 07:31:33;;;;;;;13.00;7.38;;;;;;;3.17;41.43;62325.28;5022552;28;20222;-77
2022/03/21 07:34:00;;;;;;;16.27;8.32;;;;;;;3.31;41.23;62340.19;5023313;28;20475;-77
2022/03/21 07:36:27;;;;;;;7.63;5.95;;;;;;;3.52;41.16;62359.25;5022897;28;20502;-77
2022/03/21 07:38:53;;;;;;;12.32;6.70;;;;;;;3.35;41.46;62348.81;5024141;28;20210;-77
2022/03/21 07:41:23;;;;;;;12.65;7.75;;;;;;;3.37;40.89;62348.34;5025917;28;20245;-78
2022/03/21 07:43:50;;;;;;;12.68;7.45;;;;;;;3.54;40.31;62360.81;5024661;28;20202;-77
2022/03/21 07:49:03;;;;;;;10.80;7.35;;;;;;;3.72;39.14;62381.84;5026124;28;20190;-78
2022/03/21 07:51:30;;;;;;;13.20;7.57;;;;;;;3.90;39.26;62400.34;5024667;28;20313;-78
2022/03/21 07:53:57;;;;;;;10.63;6.68;;;;;;;3.71;39.45;62377.78;5025918;28;20226;-77
2022/03/21 07:56:24;;;;;;;14.57;7.28;;;;;;;3.69;41.84;62383.78;5031566;28;20206;-77
2022/03/21 07:58:50;;;;;;;9.93;6.93;;;;;;;3.74;40.88;62383.38;5034416;28;20233;-77
2022/03/21 08:01:20;;;;;;;9.80;7.43;;;;;;;4.04;41.59;62417.25;5025157;28;20420;-77
2022/03/21 08:03:47;;;;;;;17.73;7.07;;;;;;;4.37;39.64;62448.19;5023923;28;20238;-77
2022/03/21 08:06:14;;;;;;;10.73;7.82;;;;;;;4.47;38.38;62461.00;5023980;28;20191;-78
2022/03/21 08:08:41;;;;;;;11.23;7.50;;;;;;;4.71;38.26;62483.19;5026252;28;20222;-77
2022/03/21 08:11:09;;;;;;;11.23;7.78;;;;;;;4.89;37.80;62504.25;5028578;28;20273;-76
2022/03/21 08:13:36;;;;;;;11.45;7.85;;;;;;;5.04;37.68;62519.19;5026086;28;20257;-77
2022/03/21 08:16:04;;;;;;;12.70;7.70;;;;;;;4.95;37.75;62507.91;5026498;28;20241;-78
2022/03/21 08:18:32;;;;;;;12.15;7.32;;;;;;;4.80;38.23;62491.94;5025779;28;20221;-76
2022/03/21 08:20:58;;;;;;;10.02;7.30;;;;;;;4.86;38.84;62500.63;5027157;28;20558;-78
2022/03/21 08:23:25;;;;;;;14.07;8.43;;;;;;;4.85;38.88;62497.59;5026574;28;20215;-78
2022/03/21 08:25:56;;;;;;;12.80;8.30;;;;;;;4.79;37.52;62488.91;5027348;28;20201;-77
2022/03/21 08:28:22;;;;;;;13.70;8.05;;;;;;;4.44;38.62;62453.38;5025976;28;20388;-77
2022/03/21 08:30:49;;;;;;;12.68;8.10;;;;;;;4.11;38.96;62416.38;5027163;28;20430;-76
2022/03/21 08:33:16;;;;;;;15.73;8.55;;;;;;;3.91;39.28;62401.38;5036627;28;20214;-76
2022/03/21 08:35:44;;;;;;;12.35;7.88;;;;;;;3.98;39.09;62408.06;5038426;28;20217;-76
2022/03/21 08:38:11;;;;;;;19.23;7.43;;;;;;;3.95;39.38;62402.97;5036349;28;20222;-76
2022/03/21 08:40:39;;;;;;;12.75;7.90;;;;;;;4.24;39.53;62435.34;5029475;28;20229;-77
2022/03/21 08:43:06;;;;;;;12.02;8.02;;;;;;;4.19;39.81;62427.66;5026490;28;20222;-76
2022/03/21 08:45:33;;;;;;;16.27;8.50;;;;;;;4.23;39.92;62434.28;5024192;28;20222;-78
2022/03/21 08:48:00;;;;;;;13.52;8.02;;;;;;;3.95;39.16;62405.47;5021070;28;20242;-78
2022/03/21 08:50:27;;;;;;;14.40;8.50;;;;;;;3.81;39.52;62390.56;5025810;28;20377;-74
2022/03/21 08:52:58;;;;;;;14.18;9.02;;;;;;;3.97;39.86;62412.09;5025507;28;20233;-75
2022/03/21 08:55:25;;;;;;;14.55;9.48;;;;;;;4.29;39.52;62442.47;5026374;28;20289;-75
2022/03/21 08:57:52;;;;;;;13.32;8.40;;;;;;;4.67;40.74;62479.06;5016655;28;20282;-75
2022/03/21 09:00:20;;;;;;;13.00;8.20;;;;;;;4.67;39.25;62477.06;5006540;28;20200;-74
2022/03/21 09:02:48;;;;;;;13.15;8.65;;;;;;;4.98;39.59;62511.00;5014585;28;20265;-76
2022/03/21 09:05:16;;;;;;;15.85;8.80;;;;;;;5.31;39.58;62549.50;5025785;28;20198;-75
2022/03/21 09:07:43;;;;;;;14.80;9.02;;;;;;;5.32;39.06;62542.94;5025685;28;20211;-75
2022/03/21 09:10:14;;;;;;;10.48;8.13;;;;;;;5.31;38.92;62546.97;5025811;28;20199;-76
2022/03/21 09:12:42;;;;;;;14.23;7.88;;;;;;;4.87;39.24;62494.59;5024685;28;20249;-76
2022/03/21 09:15:09;;;;;;;15.40;8.63;;;;;;;5.14;38.72;62526.94;5025194;28;20194;-74
2022/03/21 09:17:38;;;;;;;12.75;8.20;;;;;;;4.82;38.95;62491.47;5026213;28;20226;-75
2022/03/21 09:20:06;;;;;;;10.68;7.05;;;;;;;4.88;39.27;62500.69;5026331;28;20199;-76
2022/03/21 09:22:33;;;;;;;15.52;8.25;;;;;;;5.49;40.19;62563.00;5026596;28;20233;-76
2022/03/21 09:25:00;;;;;;;14.57;8.02;;;;;;;5.94;38.62;62608.88;5015760;28;20226;-75
2022/03/21 09:27:28;;;;;;;12.77;7.03;;;;;;;5.60;37.93;62576.84;5022514;28;20223;-74
2022/03/21 09:29:56;;;;;;;14.93;8.65;;;;;;;5.49;37.97;62560.47;5012359;28;20282;-75
2022/03/21 09:32:23;;;;;;;6.10;5.45;;;;;;;5.26;37.65;62536.78;5011110;28;20230;-75
2022/03/21 09:34:50;;;;;;;11.23;7.78;;;;;;;4.79;38.82;62486.38;5023382;28;20385;-74
2022/03/21 09:37:17;;;;;;;7.75;6.32;;;;;;;4.46;38.99;62457.97;5025966;28;20238;-73
2022/03/21 09:39:44;;;;;;;8.50;5.75;;;;;;;4.01;40.02;62408.63;5024939;28;20211;-75
2022/03/21 09:42:10;;;;;;;14.45;7.30;;;;;;;3.91;40.88;62401.38;5024729;28;20268;-74
2022/03/21 09:44:39;;;;;;;10.10;5.55;;;;;;;4.02;41.05;62409.66;5025249;28;20253;-76
2022/03/21 09:48:08;;;;;;;8.32;6.95;;;;;;;4.06;40.18;62413.78;5027243;28;20281;-75
2022/03/21 09:49:55;;;;;;;8.65;6.50;;;;;;;3.82;40.58;62394.13;5029653;28;20194;-73
2022/03/21 09:52:23;;;;;;;11.15;5.93;;;;;;;3.82;40.73;62389.59;5029871;28;20285;-76
2022/03/21 09:54:51;;;;;;;11.93;6.18;;;;;;;3.95;39.99;62410.53;5026452;28;20206;-76
2022/03/21 09:57:18;;;;;;;8.98;6.60;;;;;;;4.02;40.28;62412.19;5024841;28;20226;-76
2022/03/21 09:59:46;;;;;;;12.63;5.55;;;;;;;4.28;39.66;62436.41;5024546;28;20198;-74
2022/03/21 10:02:18;;;;;;;9.50;4.88;;;;;;;4.17;39.55;62427.63;5021270;28;20242;-75
2022/03/21 10:04:46;;;;;;;13.52;7.38;;;;;;;4.09;39.52;62417.38;5020100;28;20190;-75
2022/03/21 10:07:15;;;;;;;11.48;7.60;;;;;;;3.95;39.70;62408.00;5024658;28;20218;-74
2022/03/21 10:09:42;;;;;;;7.55;5.70;;;;;;;4.16;40.13;62426.59;5023920;28;20387;-76
2022/03/21 10:12:11;;;;;;;8.68;6.15;;;;;;;4.12;40.46;62417.94;5024516;28;20243;-76
2022/03/21 10:14:38;;;;;;;10.68;6.25;;;;;;;4.68;41.01;62480.09;5006036;28;20393;-76
2022/03/21 10:17:08;;;;;;;10.20;7.15;;;;;;;4.90;40.10;62502.75;5006528;28;20547;-76
2022/03/21 10:19:44;;;;;;;11.48;8.05;;;;;;;5.40;40.53;62549.19;5022936;28;20503;-76
2022/03/21 10:22:13;;;;;;;11.52;7.07;;;;;;;5.73;39.39;62583.19;5024632;28;20253;-76
2022/03/21 10:24:43;;;;;;;9.60;7.13;;;;;;;5.73;39.27;62590.25;5028445;28;20514;-77
2022/03/21 10:27:28;;;;;;;10.02;6.90;;;;;;;6.06;38.30;62623.78;5035656;28;20226;-77
2022/03/21 10:30:00;;;;;;;12.60;7.15;;;;;;;6.14;38.98;62629.47;5015530;28;20232;-76
2022/03/21 10:32:37;;;;;;;10.43;7.07;;;;;;;6.29;38.65;62640.41;5025653;28;20523;-78
2022/03/21 10:35:08;;;;;;;8.85;6.18;;;;;;;5.93;36.69;62603.31;5026789;28;20201;-77
2022/03/21 10:37:42;;;;;;;9.60;7.25;;;;;;;5.46;37.54;62559.91;5023223;28;20570;-75
2022/03/21 10:40:18;;;;;;;16.02;7.32;;;;;;;5.49;37.71;62566.03;5026952;28;20240;-77
2022/03/21 10:42:52;;;;;;;13.32;7.68;;;;;;;5.20;38.59;62533.13;5025731;28;20218;-76
2022/03/21 10:45:19;;;;;;;10.60;7.00;;;;;;;4.90;38.50;62502.25;5023726;28;20198;-74
2022/03/21 10:47:51;;;;;;;14.23;7.60;;;;;;;5.17;38.84;62527.50;5024407;28;20226;-75
2022/03/21 10:50:31;;;;;;;10.18;6.82;;;;;;;5.57;39.11;62574.28;5023921;28;20504;-76
2022/03/21 10:53:12;;;;;;;9.63;6.53;;;;;;;6.12;37.85;62630.47;5023767;28;20280;-77
2022/03/21 10:55:40;;;;;;;8.88;6.35;;;;;;;6.46;37.18;62659.94;5024666;28;20397;-76
2022/03/21 10:58:07;;;;;;;13.43;6.60;;;;;;;6.64;37.03;62679.00;5024216;28;20425;-75
2022/03/21 11:00:35;;;;;;;10.80;7.63;;;;;;;6.87;36.37;62705.28;5023749;28;20229;-75
2022/03/21 11:03:06;;;;;;;9.15;6.35;;;;;;;6.74;35.51;62688.81;5013706;28;20274;-77
2022/03/21 11:05:36;;;;;;;9.63;6.07;;;;;;;7.24;35.20;62742.41;5025636;28;20422;-78
2022/03/21 11:08:04;;;;;;;8.63;6.70;;;;;;;7.59;33.96;62776.00;5024676;28;20246;-76
2022/03/21 11:10:32;;;;;;;11.32;6.47;;;;;;;7.77;33.62;62799.63;5024523;28;20367;-76
2022/03/21 11:13:02;;;;;;;8.40;6.00;;;;;;;8.01;34.01;62827.47;5024728;28;20539;-78
2022/03/21 11:15:30;;;;;;;11.65;6.85;;;;;;;8.26;32.26;62844.69;5024593;28;20549;-78
2022/03/21 11:17:57;;;;;;;8.18;6.10;;;;;;;7.91;33.99;62811.56;5025056;28;20211;-78
2022/03/21 11:20:28;;;;;;;8.73;7.05;;;;;;;7.96;34.98;62814.19;5029835;28;20203;-76
2022/03/21 11:22:56;;;;;;;10.75;6.75;;;;;;;6.87;35.77;62707.28;5025217;28;20222;-76
2022/03/21 11:25:25;;;;;;;13.60;8.00;;;;;;;6.36;36.57;62652.69;5023899;28;20275;-76
2022/03/21 11:28:39;;;;;;;9.07;6.38;;;;;;;6.25;35.85;62641.34;5023902;28;20265;-76
2022/03/21 11:31:44;;;;;;;8.88;6.47;;;;;;;6.24;36.29;62639.78;5004775;28;20221;-77
2022/03/21 11:34:27;;;;;;;10.43;5.82;;;;;;;5.92;35.62;62614.38;5008734;28;20199;-75
2022/03/21 11:36:57;;;;;;;10.40;6.90;;;;;;;5.94;36.75;62606.84;5023717;28;20264;-77
2022/03/21 11:39:25;;;;;;;13.88;6.93;;;;;;;6.36;37.19;62652.69;5027728;28;20507;-77
2022/03/21 11:42:00;;;;;;;9.60;7.22;;;;;;;6.68;37.14;62682.63;5027866;28;20558;-76
2022/03/21 11:44:27;;;;;;;9.07;6.82;;;;;;;6.99;38.51;62715.13;5033370;28;20193;-75
2022/03/21 11:46:54;;;;;;;4.68;4.25;;;;;;;6.60;34.99;62672.38;5047726;28;20258;-73
2022/03/21 11:49:43;;;;;;;9.10;6.50;;;;;;;6.00;36.86;62615.06;5047326;28;20194;-76
2022/03/21 11:52:12;;;;;;;10.15;7.00;;;;;;;5.88;36.58;62603.72;5041244;28;20237;-75
2022/03/21 11:54:39;;;;;;;11.15;6.70;;;;;;;5.82;37.53;62594.47;5027460;28;20274;-75
2022/03/21 11:57:10;;;;;;;11.45;6.47;;;;;;;6.08;37.26;62621.28;5027412;28;20226;-77
2022/03/21 11:59:54;;;;;;;6.93;6.05;;;;;;;6.33;37.09;62649.06;5030774;28;20244;-78